Time;durP1;ratioP1;P1;durP2;ratioP2;P2;SDS_P1;SDS_P2;PMS_P1;PMS_P2;Temp;Humidity;BMP_temperature;BMP_pressure;BME280_temperature;BME280_humidity;BME280_pressure;Samples;Min_cycle;Max_cycle;Signal;HPM_P1;HPM_P2
2021/08/21 00:00:32;;;;;;;3.17;1.40;;;20.00;57.30;;;;;;2238464;55;20980;-83
2021/08/21 00:02:59;;;;;;;2.90;1.60;;;20.00;57.40;;;;;;2239872;55;21039;-84
2021/08/21 00:05:25;;;;;;;3.22;1.48;;;20.00;57.40;;;;;;2238376;55;21036;-84
2021/08/21 00:07:51;;;;;;;3.62;1.30;;;20.00;57.50;;;;;;2238424;55;21012;-84
2021/08/21 00:10:17;;;;;;;2.60;1.25;;;20.00;57.50;;;;;;2272552;55;21028;-83
2021/08/21 00:12:44;;;;;;;3.10;1.30;;;19.90;57.50;;;;;;2490149;55;20973;-83
2021/08/21 00:15:12;;;;;;;3.20;1.60;;;19.90;57.50;;;;;;2246847;55;20976;-83
2021/08/21 00:17:39;;;;;;;2.85;1.30;;;19.90;57.60;;;;;;2237813;55;21852;-83
2021/08/21 00:20:07;;;;;;;2.70;1.20;;;19.90;57.70;;;;;;2257630;55;21354;-82
2021/08/21 00:22:33;;;;;;;2.80;1.48;;;19.80;57.70;;;;;;2472706;55;21036;-84
2021/08/21 00:24:59;;;;;;;3.12;1.60;;;19.80;57.80;;;;;;2471178;55;21047;-82
2021/08/21 00:27:27;;;;;;;3.17;1.50;;;19.80;57.80;;;;;;2481367;55;21318;-83
2021/08/21 00:29:53;;;;;;;2.30;1.20;;;19.80;57.90;;;;;;2239394;55;21000;-83
2021/08/21 00:32:20;;;;;;;2.45;1.35;;;19.80;58.00;;;;;;2440775;55;20944;-83
2021/08/21 00:34:46;;;;;;;4.22;1.58;;;19.70;57.90;;;;;;2239122;55;20964;-84
2021/08/21 00:37:12;;;;;;;2.62;1.27;;;19.70;58.00;;;;;;2238813;55;21015;-83
2021/08/21 00:39:38;;;;;;;2.55;1.17;;;19.70;58.10;;;;;;2238677;55;21039;-83
2021/08/21 00:42:05;;;;;;;2.67;1.20;;;19.70;58.10;;;;;;2461106;55;20997;-80
2021/08/21 00:44:32;;;;;;;3.20;1.50;;;19.60;58.70;;;;;;2470654;55;21026;-81
2021/08/21 00:47:18;;;;;;;2.80;1.40;;;19.60;58.20;;;;;;2480603;55;21411;-81
2021/08/21 00:49:45;;;;;;;3.22;1.40;;;19.60;58.50;;;;;;2264548;55;21034;-82
2021/08/21 00:52:18;;;;;;;3.85;1.30;;;19.60;58.20;;;;;;2463193;55;20964;-82
2021/08/21 00:54:44;;;;;;;4.00;1.70;;;19.60;58.20;;;;;;2488703;55;20998;-81
2021/08/21 00:57:14;;;;;;;3.10;1.35;;;19.60;58.20;;;;;;2468651;55;21000;-82
2021/08/21 00:59:40;;;;;;;3.12;1.40;;;19.60;58.30;;;;;;2486465;55;21106;-81
2021/08/21 01:02:07;;;;;;;3.28;1.27;;;19.50;58.30;;;;;;2482929;55;21010;-81
2021/08/21 01:04:40;;;;;;;3.35;1.50;;;19.50;58.30;;;;;;2473360;55;20936;-82
2021/08/21 01:07:07;;;;;;;2.80;1.20;;;19.50;58.50;;;;;;2478496;55;21037;-81
2021/08/21 01:09:37;;;;;;;3.85;1.48;;;19.50;58.40;;;;;;2473308;55;20953;-82
2021/08/21 01:12:21;;;;;;;2.70;1.17;;;19.50;58.60;;;;;;2462929;55;20940;-81
2021/08/21 01:14:49;;;;;;;3.15;1.40;;;19.50;58.70;;;;;;2487284;55;21013;-82
2021/08/21 01:17:15;;;;;;;3.08;1.40;;;19.50;58.60;;;;;;2491565;55;20994;-81
2021/08/21 01:19:44;;;;;;;5.55;1.90;;;19.50;58.70;;;;;;2487414;55;20950;-82
2021/08/21 01:22:12;;;;;;;3.85;1.42;;;19.50;58.70;;;;;;2490974;55;20934;-80
2021/08/21 01:24:39;;;;;;;4.07;1.90;;;19.40;58.60;;;;;;2465215;55;21096;-82
2021/08/21 01:27:05;;;;;;;4.03;1.60;;;19.40;58.60;;;;;;2240227;55;20992;-82
2021/08/21 01:29:31;;;;;;;3.10;1.70;;;19.40;58.70;;;;;;2261118;55;20998;-82
2021/08/21 01:31:58;;;;;;;3.08;1.55;;;19.40;58.70;;;;;;2448495;55;21017;-81
2021/08/21 01:34:24;;;;;;;2.92;1.52;;;19.30;58.70;;;;;;2493196;55;21175;-82
2021/08/21 01:36:51;;;;;;;2.75;1.23;;;19.40;58.70;;;;;;2462932;55;20956;-81
2021/08/21 01:39:18;;;;;;;4.32;1.67;;;19.30;58.60;;;;;;2266256;55;20994;-82
2021/08/21 01:41:44;;;;;;;2.65;1.20;;;19.30;58.60;;;;;;2238282;55;20960;-82
2021/08/21 01:44:12;;;;;;;6.00;1.60;;;19.30;58.70;;;;;;2238218;55;20956;-82
2021/08/21 01:46:39;;;;;;;2.90;1.50;;;19.30;58.70;;;;;;2460507;55;20944;-82
2021/08/21 01:49:11;;;;;;;2.87;1.50;;;19.20;58.70;;;;;;2468945;55;20958;-81
2021/08/21 01:52:14;;;;;;;3.25;1.58;;;19.20;58.70;;;;;;2481530;54;20937;-81
2021/08/21 01:54:40;;;;;;;2.62;1.25;;;19.20;59.00;;;;;;2238793;55;20976;-82
2021/08/21 01:57:07;;;;;;;3.00;1.50;;;19.10;58.60;;;;;;2238307;55;20941;-81
2021/08/21 01:59:41;;;;;;;2.90;1.23;;;19.10;58.70;;;;;;2465965;55;21030;-81
2021/08/21 02:02:14;;;;;;;7.43;2.05;;;19.10;59.00;;;;;;2481862;55;20944;-84
2021/08/21 02:04:40;;;;;;;2.78;1.50;;;19.10;59.00;;;;;;2249285;55;20978;-82
2021/08/21 02:07:07;;;;;;;2.75;1.40;;;19.00;58.80;;;;;;2261703;55;20941;-81
2021/08/21 02:09:34;;;;;;;3.25;1.75;;;19.00;58.90;;;;;;2440766;55;20964;-82
2021/08/21 02:12:01;;;;;;;3.97;1.92;;;19.00;59.00;;;;;;2473916;55;20934;-83
2021/08/21 02:14:28;;;;;;;3.00;1.62;;;19.00;59.10;;;;;;2482654;55;20952;-81
2021/08/21 02:16:56;;;;;;;5.18;1.80;;;19.00;59.20;;;;;;2263652;55;20984;-80
2021/08/21 02:19:23;;;;;;;3.42;1.65;;;18.90;59.20;;;;;;2461361;55;20961;-82
2021/08/21 02:21:49;;;;;;;3.55;1.80;;;18.90;59.20;;;;;;2262796;55;21042;-81
2021/08/21 02:24:16;;;;;;;3.10;1.45;;;18.90;59.20;;;;;;2247808;55;20960;-82
2021/08/21 02:26:45;;;;;;;4.68;1.52;;;18.90;59.30;;;;;;2493212;55;20988;-80
2021/08/21 02:29:14;;;;;;;2.87;1.55;;;18.90;59.30;;;;;;2480239;55;21030;-81
2021/08/21 02:31:40;;;;;;;3.22;1.60;;;18.80;59.30;;;;;;2262362;55;21503;-83
2021/08/21 02:34:07;;;;;;;2.80;1.60;;;18.80;59.40;;;;;;2230999;55;20956;-82
2021/08/21 02:36:33;;;;;;;3.20;1.70;;;18.80;59.40;;;;;;2488253;55;21054;-83
2021/08/21 02:38:59;;;;;;;3.75;2.17;;;18.80;59.50;;;;;;2463418;55;21495;-82
2021/08/21 02:41:26;;;;;;;3.05;1.50;;;18.80;59.60;;;;;;2238694;55;21036;-83
2021/08/21 02:43:52;;;;;;;3.78;1.70;;;18.80;59.60;;;;;;2238781;55;20964;-83
2021/08/21 02:46:18;;;;;;;4.45;1.75;;;18.80;59.60;;;;;;2266724;55;20977;-83
2021/08/21 02:48:45;;;;;;;3.20;1.50;;;18.80;59.70;;;;;;2467524;55;21103;-81
2021/08/21 02:51:11;;;;;;;3.35;1.80;;;18.80;59.70;;;;;;2237968;55;21942;-83
2021/08/21 02:53:37;;;;;;;3.22;1.62;;;18.80;59.70;;;;;;2258694;55;21284;-82
2021/08/21 02:56:04;;;;;;;5.12;2.20;;;18.80;59.70;;;;;;2466575;55;21003;-83
2021/08/21 02:58:31;;;;;;;3.42;1.58;;;18.80;59.80;;;;;;2459238;55;21063;-82
2021/08/21 03:00:57;;;;;;;3.30;1.83;;;18.80;59.80;;;;;;2459323;55;21020;-83
2021/08/21 03:03:23;;;;;;;3.30;1.60;;;18.80;59.80;;;;;;2461217;55;20948;-82
2021/08/21 03:05:50;;;;;;;3.65;1.98;;;18.80;59.80;;;;;;2470815;55;21106;-82
2021/08/21 03:08:16;;;;;;;4.72;1.87;;;18.80;59.80;;;;;;2261500;55;20944;-83
2021/08/21 03:10:42;;;;;;;3.35;1.75;;;18.80;59.90;;;;;;2269698;55;20974;-83
2021/08/21 03:13:08;;;;;;;3.20;1.90;;;18.70;59.80;;;;;;2241758;55;20980;-83
2021/08/21 03:15:35;;;;;;;3.33;1.80;;;18.70;59.90;;;;;;2238346;55;21007;-83
2021/08/21 03:18:01;;;;;;;3.12;1.60;;;18.70;59.80;;;;;;2238650;55;20952;-83
2021/08/21 03:20:27;;;;;;;4.25;1.60;;;18.70;59.80;;;;;;2460986;55;21067;-83
2021/08/21 03:22:53;;;;;;;3.80;2.08;;;18.70;59.90;;;;;;2238876;55;20984;-83
2021/08/21 03:25:20;;;;;;;3.28;1.80;;;18.70;59.90;;;;;;2462669;55;21016;-82
2021/08/21 03:27:46;;;;;;;3.12;1.65;;;18.70;59.90;;;;;;2266264;55;20965;-83
2021/08/21 03:30:13;;;;;;;3.67;2.00;;;18.70;59.90;;;;;;2239192;55;20988;-82
2021/08/21 03:32:39;;;;;;;4.47;2.30;;;18.70;59.90;;;;;;2266638;55;20977;-83
2021/08/21 03:35:06;;;;;;;3.67;2.03;;;18.70;59.90;;;;;;2238419;55;21040;-83
2021/08/21 03:37:32;;;;;;;3.58;1.90;;;18.70;60.00;;;;;;2490586;55;21014;-82
2021/08/21 03:39:59;;;;;;;3.60;1.90;;;18.70;60.00;;;;;;2460882;55;20948;-82
2021/08/21 03:42:25;;;;;;;3.50;1.87;;;18.60;59.90;;;;;;2485400;55;20949;-83
2021/08/21 03:44:51;;;;;;;3.50;2.05;;;18.60;60.00;;;;;;2466010;55;20968;-82
2021/08/21 03:47:18;;;;;;;4.07;2.00;;;18.60;60.00;;;;;;2460765;55;20979;-83
2021/08/21 03:49:46;;;;;;;5.10;1.95;;;18.60;60.00;;;;;;2491626;55;21044;-82
2021/08/21 03:52:13;;;;;;;3.20;1.60;;;18.60;60.10;;;;;;2490940;54;21052;-82
2021/08/21 03:54:39;;;;;;;3.45;1.80;;;18.50;60.00;;;;;;2460714;55;20944;-82
2021/08/21 03:57:05;;;;;;;3.50;1.65;;;18.50;60.00;;;;;;2238597;55;20948;-82
2021/08/21 03:59:31;;;;;;;4.20;1.70;;;18.60;60.20;;;;;;2479532;55;20986;-82
2021/08/21 04:01:58;;;;;;;3.37;2.08;;;18.50;60.10;;;;;;2259769;55;20982;-83
2021/08/21 04:04:24;;;;;;;3.62;2.08;;;18.50;60.20;;;;;;2254926;55;20956;-83
2021/08/21 04:06:50;;;;;;;6.10;2.15;;;18.50;60.20;;;;;;2469729;55;21077;-77
2021/08/21 04:09:17;;;;;;;4.20;2.00;;;18.50;60.30;;;;;;2482640;55;21012;-84
2021/08/21 04:11:43;;;;;;;3.08;1.67;;;18.50;60.30;;;;;;2460571;55;21423;-82
2021/08/21 04:14:10;;;;;;;3.15;1.73;;;18.50;60.30;;;;;;2460935;55;20996;-83
2021/08/21 04:16:36;;;;;;;3.20;1.80;;;18.50;60.40;;;;;;2460356;55;20945;-83
2021/08/21 04:19:02;;;;;;;2.78;1.48;;;18.50;60.60;;;;;;2238540;55;21008;-82
2021/08/21 04:21:29;;;;;;;4.20;1.75;;;18.40;60.20;;;;;;2463892;55;21052;-82
2021/08/21 04:23:55;;;;;;;3.60;1.73;;;18.40;60.30;;;;;;2487907;55;21031;-83
2021/08/21 04:26:21;;;;;;;3.00;1.70;;;18.40;60.30;;;;;;2491528;55;20930;-83
2021/08/21 04:28:47;;;;;;;4.90;1.87;;;18.40;60.30;;;;;;2266872;55;21365;-83
2021/08/21 04:31:14;;;;;;;3.83;1.67;;;18.40;60.40;;;;;;2462386;55;20932;-83
2021/08/21 04:33:40;;;;;;;3.58;1.87;;;18.20;60.20;;;;;;2461007;55;20972;-82
2021/08/21 04:36:06;;;;;;;4.45;1.90;;;18.40;60.40;;;;;;2460944;55;21392;-82
2021/08/21 04:38:33;;;;;;;3.85;1.92;;;18.40;60.50;;;;;;2261809;55;21010;-83
2021/08/21 04:40:59;;;;;;;4.35;1.80;;;18.30;60.40;;;;;;2242571;55;20936;-82
2021/08/21 04:43:25;;;;;;;2.65;1.50;;;18.30;60.50;;;;;;2266316;55;20993;-83
2021/08/21 04:45:51;;;;;;;3.08;1.40;;;18.30;60.50;;;;;;2239409;55;20960;-83
2021/08/21 04:48:18;;;;;;;3.20;1.55;;;18.30;60.50;;;;;;2489665;55;20922;-83
2021/08/21 04:50:45;;;;;;;2.92;1.50;;;18.30;60.60;;;;;;2464129;55;21051;-82
2021/08/21 04:53:11;;;;;;;4.05;1.70;;;18.30;60.70;;;;;;2238676;55;20956;-83
2021/08/21 04:55:38;;;;;;;4.45;1.70;;;18.30;60.70;;;;;;2238283;55;21364;-82
2021/08/21 04:58:05;;;;;;;2.78;1.40;;;18.40;60.90;;;;;;2460274;55;21251;-83
2021/08/21 05:00:31;;;;;;;4.10;1.70;;;18.30;60.90;;;;;;2460533;55;20964;-82
2021/08/21 05:02:58;;;;;;;3.47;1.70;;;18.30;60.90;;;;;;2476482;55;21023;-81
2021/08/21 05:05:26;;;;;;;3.33;1.55;;;18.30;60.90;;;;;;2478701;55;20960;-82
2021/08/21 05:07:52;;;;;;;3.10;1.70;;;18.40;61.10;;;;;;2466692;55;21762;-82
2021/08/21 05:10:19;;;;;;;3.30;1.80;;;18.40;61.10;;;;;;2257563;55;21013;-82
2021/08/21 05:12:45;;;;;;;3.40;1.77;;;18.30;61.10;;;;;;2460727;55;20948;-82
2021/08/21 05:15:12;;;;;;;3.12;1.73;;;18.30;61.20;;;;;;2460917;55;21674;-82
2021/08/21 05:17:38;;;;;;;2.90;1.67;;;18.30;61.20;;;;;;2275984;55;21021;-83
2021/08/21 05:20:17;;;;;;;3.30;1.70;;;18.30;61.20;;;;;;2463724;55;20964;-84
2021/08/21 05:22:49;;;;;;;3.30;1.60;;;18.40;61.40;;;;;;2266806;55;20949;-83
2021/08/21 05:25:17;;;;;;;3.28;1.70;;;18.40;61.40;;;;;;2238446;55;20983;-84
2021/08/21 05:27:44;;;;;;;3.75;1.80;;;18.40;61.40;;;;;;2238612;55;21071;-83
2021/08/21 05:30:10;;;;;;;2.80;1.35;;;18.40;61.50;;;;;;2460827;55;21015;-82
2021/08/21 05:32:37;;;;;;;3.50;1.83;;;18.40;61.50;;;;;;2243573;55;20956;-82
2021/08/21 05:35:04;;;;;;;3.92;1.85;;;18.40;61.50;;;;;;2266157;55;21020;-83
2021/08/21 05:37:30;;;;;;;3.45;1.80;;;18.50;61.70;;;;;;2460492;55;21080;-82
2021/08/21 05:39:56;;;;;;;3.50;2.00;;;18.40;61.60;;;;;;2481697;55;20989;-82
2021/08/21 05:42:23;;;;;;;3.28;1.50;;;18.50;61.70;;;;;;2246595;55;20988;-83
2021/08/21 05:44:50;;;;;;;3.53;1.70;;;18.50;61.70;;;;;;2272636;55;21002;-82
2021/08/21 05:47:16;;;;;;;3.00;1.70;;;18.50;61.60;;;;;;2487496;55;21031;-83
2021/08/21 05:49:43;;;;;;;3.10;1.60;;;18.50;61.60;;;;;;2270714;55;21022;-83
2021/08/21 05:52:10;;;;;;;3.92;1.58;;;18.50;61.70;;;;;;2265227;55;20986;-83
2021/08/21 05:54:36;;;;;;;3.47;1.67;;;18.50;61.80;;;;;;2466437;55;21423;-82
2021/08/21 05:57:02;;;;;;;2.97;1.60;;;18.50;61.80;;;;;;2439424;55;21585;-83
2021/08/21 05:59:31;;;;;;;3.30;1.73;;;18.60;62.00;;;;;;2489211;55;20939;-83
2021/08/21 06:01:58;;;;;;;3.53;1.92;;;18.60;62.10;;;;;;2464190;55;21023;-83
2021/08/21 06:04:24;;;;;;;3.40;1.70;;;18.70;62.30;;;;;;2460415;55;20952;-83
2021/08/21 06:06:51;;;;;;;4.62;2.20;;;18.70;62.30;;;;;;2460406;55;20960;-82
2021/08/21 06:09:20;;;;;;;3.47;1.80;;;18.70;62.30;;;;;;2485402;55;20970;-82
2021/08/21 06:11:46;;;;;;;3.62;1.60;;;18.80;62.50;;;;;;2464724;55;20996;-82
2021/08/21 06:14:13;;;;;;;2.80;1.60;;;18.80;62.50;;;;;;2276166;55;21006;-82
2021/08/21 06:16:39;;;;;;;2.90;1.70;;;18.80;62.60;;;;;;2479622;55;21077;-82
2021/08/21 06:19:06;;;;;;;3.25;1.70;;;18.90;62.70;;;;;;2451350;55;20960;-83
2021/08/21 06:21:32;;;;;;;3.47;1.90;;;18.90;62.70;;;;;;2473204;55;20923;-81
2021/08/21 06:23:58;;;;;;;3.65;1.83;;;18.90;62.80;;;;;;2487046;55;20974;-83
2021/08/21 06:26:25;;;;;;;2.53;1.33;;;19.00;62.90;;;;;;2476699;55;20957;-83
2021/08/21 06:28:51;;;;;;;3.40;1.80;;;19.10;63.10;;;;;;2469945;55;21050;-83
2021/08/21 06:31:17;;;;;;;2.78;1.50;;;19.10;63.10;;;;;;2259175;55;21000;-82
2021/08/21 06:33:43;;;;;;;3.30;1.65;;;19.20;63.20;;;;;;2476318;55;21812;-82
2021/08/21 06:36:10;;;;;;;3.50;1.60;;;19.30;63.30;;;;;;2476782;55;20977;-82
2021/08/21 06:38:36;;;;;;;3.22;1.90;;;19.40;63.40;;;;;;2259317;55;20942;-82
2021/08/21 06:41:03;;;;;;;3.17;1.67;;;19.40;63.40;;;;;;2467940;55;21127;-82
2021/08/21 06:43:29;;;;;;;4.03;2.00;;;19.50;63.40;;;;;;2237435;55;21054;-83
2021/08/21 06:45:55;;;;;;;3.22;1.85;;;19.60;63.50;;;;;;2234444;55;20948;-81
2021/08/21 06:48:22;;;;;;;3.83;2.35;;;19.70;63.60;;;;;;2263386;55;21279;-81
2021/08/21 06:50:48;;;;;;;3.75;2.33;;;19.70;63.60;;;;;;2456895;55;21849;-80
2021/08/21 06:53:15;;;;;;;3.83;2.50;;;19.80;63.70;;;;;;2457806;55;20949;-79
2021/08/21 06:55:41;;;;;;;3.70;2.00;;;19.90;63.90;;;;;;2234920;55;20976;-78
2021/08/21 06:58:08;;;;;;;3.65;1.90;;;20.00;64.00;;;;;;2472265;55;21300;-79
2021/08/21 07:00:35;;;;;;;4.93;2.70;;;20.10;64.10;;;;;;2475226;55;20989;-78
2021/08/21 07:03:02;;;;;;;4.50;2.20;;;20.20;64.20;;;;;;2489005;55;21001;-79
2021/08/21 07:05:28;;;;;;;3.25;1.83;;;20.30;64.30;;;;;;2459303;55;21572;-79
2021/08/21 07:07:54;;;;;;;3.00;1.80;;;20.40;64.50;;;;;;2468321;55;21775;-78
2021/08/21 07:10:21;;;;;;;6.85;2.00;;;20.50;64.60;;;;;;2477334;55;21095;-78
2021/08/21 07:12:47;;;;;;;3.53;2.08;;;20.70;64.80;;;;;;2259359;55;20934;-79
2021/08/21 07:15:13;;;;;;;4.03;2.33;;;20.80;65.00;;;;;;2242947;55;21004;-78
2021/08/21 07:17:39;;;;;;;3.00;1.80;;;21.00;65.30;;;;;;2458022;55;20913;-78
2021/08/21 07:20:06;;;;;;;4.37;2.45;;;21.20;65.40;;;;;;2247998;55;20989;-79
2021/08/21 07:22:33;;;;;;;3.90;2.05;;;21.30;65.20;;;;;;2248699;55;21478;-79
2021/08/21 07:24:59;;;;;;;3.50;2.05;;;21.40;64.90;;;;;;2490451;55;21054;-79
2021/08/21 07:27:26;;;;;;;4.25;2.20;;;21.60;64.80;;;;;;2248810;55;20989;-79
2021/08/21 07:29:52;;;;;;;3.60;2.10;;;21.70;64.70;;;;;;2479494;55;20954;-78
2021/08/21 07:32:18;;;;;;;4.18;2.37;;;21.80;64.40;;;;;;2258007;55;21486;-80
2021/08/21 07:34:45;;;;;;;3.40;1.83;;;21.90;64.30;;;;;;2262382;55;20950;-79
2021/08/21 07:37:11;;;;;;;5.45;2.20;;;21.90;64.00;;;;;;2235833;55;20956;-77
2021/08/21 07:39:37;;;;;;;4.32;2.10;;;22.10;64.20;;;;;;2248280;55;21065;-79
2021/08/21 07:42:04;;;;;;;3.90;2.25;;;22.20;64.20;;;;;;2485783;55;20978;-78
2021/08/21 07:44:31;;;;;;;4.10;2.20;;;22.30;64.20;;;;;;2475799;55;20976;-79
2021/08/21 07:46:57;;;;;;;4.97;1.90;;;22.40;64.10;;;;;;2487168;55;20978;-78
2021/08/21 07:49:23;;;;;;;3.15;1.83;;;22.50;64.10;;;;;;2457386;55;20948;-78
2021/08/21 07:51:50;;;;;;;3.30;1.90;;;22.60;64.20;;;;;;2266189;55;20976;-78
2021/08/21 07:54:16;;;;;;;3.92;2.33;;;22.70;64.10;;;;;;2437030;55;20959;-78
2021/08/21 07:56:42;;;;;;;4.53;2.87;;;22.80;63.90;;;;;;2456825;55;20928;-78
2021/08/21 07:59:08;;;;;;;5.80;2.50;;;22.90;63.80;;;;;;2234351;55;21020;-77
2021/08/21 08:01:35;;;;;;;5.57;2.55;;;23.00;63.70;;;;;;2456678;55;21537;-77
2021/08/21 08:04:01;;;;;;;4.57;2.55;;;23.10;63.60;;;;;;2457135;55;21404;-78
2021/08/21 08:06:27;;;;;;;3.85;2.45;;;23.20;63.60;;;;;;2456976;55;20944;-77
2021/08/21 08:08:54;;;;;;;4.18;2.80;;;23.30;63.50;;;;;;2457959;55;21778;-78
2021/08/21 08:11:20;;;;;;;4.55;2.75;;;23.40;63.50;;;;;;2265508;55;21057;-78
2021/08/21 08:13:46;;;;;;;4.30;2.62;;;23.40;63.30;;;;;;2260035;55;20926;-78
2021/08/21 08:16:12;;;;;;;5.15;3.00;;;23.50;63.30;;;;;;2247885;55;21013;-78
2021/08/21 08:18:39;;;;;;;5.18;3.12;;;23.60;63.20;;;;;;2472017;55;20984;-78
2021/08/21 08:21:05;;;;;;;4.70;2.80;;;23.60;63.10;;;;;;2232868;55;20947;-79
2021/08/21 08:23:32;;;;;;;5.35;2.67;;;23.70;63.30;;;;;;2231877;55;21035;-81
2021/08/21 08:25:58;;;;;;;4.10;2.40;;;23.80;63.50;;;;;;2454909;55;20949;-78
2021/08/21 08:28:25;;;;;;;4.62;2.65;;;23.90;63.50;;;;;;2455542;55;21807;-79
2021/08/21 08:30:53;;;;;;;4.95;2.58;;;24.00;63.40;;;;;;2232513;55;20960;-79
2021/08/21 08:33:22;;;;;;;5.03;2.72;;;24.10;63.10;;;;;;2435153;55;20976;-78
2021/08/21 08:35:51;;;;;;;4.15;2.60;;;24.20;63.00;;;;;;2238904;55;20960;-78
2021/08/21 08:38:18;;;;;;;4.82;3.08;;;24.20;62.70;;;;;;2456115;55;20956;-78
2021/08/21 08:40:46;;;;;;;3.75;2.37;;;24.30;62.60;;;;;;2455047;55;20984;-79
2021/08/21 08:43:12;;;;;;;5.28;2.90;;;24.40;62.30;;;;;;2486016;55;20965;-78
2021/08/21 08:45:40;;;;;;;4.72;2.58;;;24.50;62.10;;;;;;2455568;55;20944;-78
2021/08/21 08:48:06;;;;;;;4.28;2.45;;;24.60;62.00;;;;;;2455495;55;21018;-78
2021/08/21 08:50:32;;;;;;;5.55;3.28;;;24.60;61.80;;;;;;2489117;55;21611;-78
2021/08/21 08:52:59;;;;;;;5.32;2.83;;;24.70;61.80;;;;;;2260522;55;20982;-79
2021/08/21 08:55:25;;;;;;;4.22;2.45;;;24.70;61.60;;;;;;2260722;55;21014;-78
2021/08/21 08:57:53;;;;;;;3.90;2.03;;;24.80;61.50;;;;;;2218765;55;20960;-80
2021/08/21 09:00:22;;;;;;;4.18;2.45;;;24.80;61.40;;;;;;2232713;55;20956;-79
2021/08/21 09:02:49;;;;;;;4.00;2.30;;;24.90;61.50;;;;;;2258827;55;20930;-79
2021/08/21 09:05:17;;;;;;;4.57;2.47;;;25.00;61.70;;;;;;2233935;55;21461;-78
2021/08/21 09:07:54;;;;;;;3.83;2.35;;;25.00;62.30;;;;;;2455842;55;21069;-78
2021/08/21 09:10:34;;;;;;;3.83;2.28;;;25.10;61.20;;;;;;2483748;54;20946;-78
2021/08/21 09:13:08;;;;;;;4.90;2.78;;;25.20;61.10;;;;;;2455785;55;21450;-78
2021/08/21 09:15:36;;;;;;;3.65;2.20;;;25.30;61.30;;;;;;2455564;55;20936;-81
2021/08/21 09:18:13;;;;;;;3.72;2.42;;;25.40;61.40;;;;;;2256573;55;20962;-77
2021/08/21 09:21:40;;;;;;;5.90;2.85;;;25.40;61.30;;;;;;2477654;55;20986;-77
2021/08/21 09:24:23;;;;;;;4.20;2.50;;;25.60;61.00;;;;;;2455760;55;21091;-78
2021/08/21 09:26:49;;;;;;;;;;;25.70;60.90;;;;;;2459677;55;20995;-81
2021/08/21 09:29:27;;;;;;;3.62;1.90;;;25.80;61.00;;;;;;2455942;55;20094;-78
2021/08/21 09:32:06;;;;;;;3.80;2.30;;;25.90;60.80;;;;;;2455792;55;21008;-78
2021/08/21 09:34:32;;;;;;;3.75;2.42;;;25.90;60.50;;;;;;2233099;55;21036;-79
2021/08/21 09:36:59;;;;;;;3.60;2.28;;;26.00;61.00;;;;;;2232941;55;21530;-78
2021/08/21 09:39:41;;;;;;;4.87;2.75;;;26.10;60.90;;;;;;2261668;55;21002;-79
2021/08/21 09:42:08;;;;;;;3.78;2.17;;;26.20;60.40;;;;;;2455871;55;20957;-79
2021/08/21 09:44:37;;;;;;;4.15;2.35;;;26.30;60.70;;;;;;2232934;55;21028;-80
2021/08/21 09:47:26;;;;;;;3.42;2.30;;;26.30;60.70;;;;;;2263069;55;21002;-78
2021/08/21 09:50:10;;;;;;;3.95;2.50;;;26.40;60.20;;;;;;2470291;55;21013;-77
2021/08/21 09:52:36;;;;;;;4.32;2.60;;;26.50;60.60;;;;;;2253996;55;20974;-77
2021/08/21 09:55:10;;;;;;;3.78;2.55;;;26.70;60.40;;;;;;2250150;55;20936;-78
2021/08/21 09:57:37;;;;;;;4.40;2.42;;;26.70;60.00;;;;;;2456593;55;20936;-77
2021/08/21 10:00:04;;;;;;;5.35;3.47;;;26.80;60.10;;;;;;2466698;55;21094;-78
2021/08/21 10:02:31;;;;;;;4.70;2.87;;;26.90;59.70;;;;;;2257151;55;21963;-77
2021/08/21 10:04:58;;;;;;;5.05;2.92;;;26.90;59.50;;;;;;2256588;55;20949;-77
2021/08/21 10:07:37;;;;;;;3.60;2.20;;;27.00;59.60;;;;;;2469746;55;21207;-79
2021/08/21 10:10:04;;;;;;;5.10;2.25;;;27.10;59.50;;;;;;2450613;55;21034;-78
2021/08/21 10:12:31;;;;;;;3.60;2.28;;;27.20;60.20;;;;;;2485973;55;21413;-79
2021/08/21 10:14:58;;;;;;;4.18;2.20;;;27.20;59.40;;;;;;2248057;55;21028;-78
2021/08/21 10:17:24;;;;;;;3.22;2.10;;;27.20;59.30;;;;;;2234333;55;21485;-78
2021/08/21 10:19:50;;;;;;;3.80;2.37;;;27.40;59.40;;;;;;2234554;55;20959;-78
2021/08/21 10:22:16;;;;;;;4.87;2.72;;;27.50;59.30;;;;;;2234333;55;20964;-78
2021/08/21 10:24:44;;;;;;;4.03;2.50;;;27.60;59.00;;;;;;2487663;55;21060;-77
2021/08/21 10:27:14;;;;;;;3.80;2.55;;;27.70;58.80;;;;;;2262782;55;20945;-77
2021/08/21 10:29:40;;;;;;;3.65;2.40;;;27.70;58.40;;;;;;2234433;55;21020;-78
2021/08/21 10:32:29;;;;;;;3.67;2.40;;;27.80;58.40;;;;;;2234014;55;20964;-78
2021/08/21 10:34:55;;;;;;;4.00;2.50;;;27.90;57.70;;;;;;2456618;55;21581;-78
2021/08/21 10:38:36;;;;;;;3.67;2.42;;;28.00;58.20;;;;;;2456440;55;21830;-78
2021/08/21 10:41:35;;;;;;;4.72;2.33;;;28.10;57.60;;;;;;2233352;55;21005;-79
2021/08/21 10:44:02;;;;;;;3.95;2.20;;;28.10;57.30;;;;;;2456989;55;20964;-77
2021/08/21 10:47:28;;;;;;;3.40;2.22;;;28.20;57.90;;;;;;2258016;55;20957;-79
2021/08/21 10:49:55;;;;;;;3.30;1.98;;;28.30;57.00;;;;;;2466931;55;21022;-79
2021/08/21 10:53:12;;;;;;;4.30;2.17;;;28.30;57.30;;;;;;2249739;55;20968;-78
2021/08/21 10:55:42;;;;;;;3.75;2.10;;;28.40;56.50;;;;;;2458311;55;21020;-78
2021/08/21 10:58:24;;;;;;;3.85;2.20;;;28.50;56.90;;;;;;2436927;55;21008;-77
2021/08/21 11:01:20;;;;;;;4.05;2.00;;;28.50;56.50;;;;;;2262966;55;20941;-79
2021/08/21 11:03:47;;;;;;;3.70;2.40;;;28.60;56.30;;;;;;2467424;55;21476;-78
2021/08/21 11:06:13;;;;;;;4.85;2.40;;;28.70;56.70;;;;;;2478841;55;20978;-78
2021/08/21 11:09:05;;;;;;;4.25;2.53;;;28.70;56.40;;;;;;2444891;55;20966;-78
2021/08/21 11:14:26;;;;;;;3.72;2.12;;;28.90;56.20;;;;;;2457964;55;20960;-78
2021/08/21 11:17:00;;;;;;;3.50;1.98;;;29.00;55.90;;;;;;2475563;55;20954;-79
2021/08/21 11:19:40;;;;;;;3.37;1.90;;;29.10;55.70;;;;;;2243256;55;21019;-78
2021/08/21 11:22:14;;;;;;;3.00;1.85;;;29.10;55.60;;;;;;2457869;55;20952;-78
2021/08/21 11:26:32;;;;;;;3.90;2.45;;;29.20;55.40;;;;;;2437688;55;20957;-79
2021/08/21 11:29:07;;;;;;;3.50;2.08;;;29.30;55.50;;;;;;2457583;55;20972;-78
2021/08/21 11:31:55;;;;;;;3.90;2.50;;;29.30;55.00;;;;;;2457576;55;20956;-78
2021/08/21 11:34:22;;;;;;;4.12;1.98;;;29.40;54.70;;;;;;2246325;55;20974;-78
2021/08/21 11:36:48;;;;;;;4.15;2.22;;;29.40;55.10;;;;;;2481651;55;20975;-78
2021/08/21 11:39:14;;;;;;;4.28;2.72;;;29.40;54.90;;;;;;2466835;55;20994;-78
2021/08/21 11:41:55;;;;;;;3.95;2.50;;;29.40;54.40;;;;;;2261443;55;21047;-84
2021/08/21 11:44:31;;;;;;;4.43;2.20;;;29.50;54.00;;;;;;2238968;55;21292;-82
2021/08/21 11:47:09;;;;;;;3.78;2.25;;;29.60;54.10;;;;;;2491341;55;20934;-82
2021/08/21 11:49:36;;;;;;;3.17;2.10;;;29.60;54.20;;;;;;2461733;55;20956;-82
2021/08/21 11:52:03;;;;;;;3.60;2.28;;;29.60;54.30;;;;;;2256549;55;21005;-82
2021/08/21 11:54:32;;;;;;;3.67;1.85;;;29.70;54.10;;;;;;2253667;55;21036;-82
2021/08/21 11:57:02;;;;;;;4.95;2.03;;;29.70;54.10;;;;;;2487221;54;20981;-83
2021/08/21 11:59:28;;;;;;;3.92;2.10;;;29.80;54.10;;;;;;2479467;55;20960;-82
2021/08/21 12:02:04;;;;;;;3.72;2.10;;;29.90;54.10;;;;;;2477373;54;21013;-82
2021/08/21 12:04:32;;;;;;;5.12;2.28;;;29.90;53.60;;;;;;2486573;55;21022;-84
2021/08/21 12:06:59;;;;;;;4.95;2.28;;;29.90;53.70;;;;;;2497130;55;20978;-82
2021/08/21 12:09:25;;;;;;;9.90;2.83;;;30.00;54.20;;;;;;2461547;55;21036;-81
2021/08/21 12:11:52;;;;;;;7.85;2.42;;;30.10;53.70;;;;;;2269219;55;21033;-82
2021/08/21 12:14:25;;;;;;;5.30;2.60;;;30.10;53.50;;;;;;2459716;55;20964;-80
2021/08/21 12:16:54;;;;;;;3.65;2.15;;;30.20;52.50;;;;;;2459021;55;21052;-81
2021/08/21 12:19:21;;;;;;;3.40;2.20;;;30.30;52.50;;;;;;2459004;55;21665;-81
2021/08/21 12:21:56;;;;;;;8.93;2.50;;;30.30;52.70;;;;;;2438186;55;21077;-81
2021/08/21 12:24:22;;;;;;;16.85;3.30;;;30.30;52.80;;;;;;2461554;55;21095;-81
2021/08/21 12:26:49;;;;;;;6.62;2.33;;;30.40;53.20;;;;;;2459614;55;21781;-80
2021/08/21 12:29:24;;;;;;;5.72;2.30;;;30.40;53.10;;;;;;2245781;55;20952;-80
2021/08/21 12:31:51;;;;;;;3.40;2.05;;;30.50;52.80;;;;;;2447268;55;22026;-80
2021/08/21 12:34:21;;;;;;;3.22;1.62;;;30.60;52.40;;;;;;2485546;55;20971;-80
2021/08/21 12:36:48;;;;;;;3.50;1.98;;;30.70;52.20;;;;;;2484532;55;20950;-80
2021/08/21 12:39:21;;;;;;;3.47;2.00;;;30.70;51.90;;;;;;2470097;55;21721;-80
2021/08/21 12:42:00;;;;;;;3.03;1.83;;;30.80;51.50;;;;;;2488231;54;21090;-80
2021/08/21 12:44:36;;;;;;;4.75;2.12;;;30.80;51.10;;;;;;2460219;55;20988;-78
2021/08/21 12:47:07;;;;;;;3.40;1.90;;;30.90;50.80;;;;;;2271292;55;20986;-80
2021/08/21 12:49:35;;;;;;;3.78;1.75;;;30.90;50.70;;;;;;2257311;55;21818;-78
2021/08/21 12:52:27;;;;;;;3.40;1.67;;;31.00;50.80;;;;;;2475059;55;21054;-79
2021/08/21 12:55:01;;;;;;;3.72;1.48;;;31.00;50.60;;;;;;2236737;55;21009;-78
2021/08/21 12:57:34;;;;;;;3.12;1.90;;;31.10;50.70;;;;;;2489564;55;21835;-79
2021/08/21 13:00:16;;;;;;;3.50;1.92;;;31.10;50.40;;;;;;2460364;55;20941;-82
2021/08/21 13:02:47;;;;;;;4.22;1.70;;;31.20;50.40;;;;;;2460612;55;20940;-81